createdAt,value
2024-02-17T00:00:50.961Z,46.13
2024-02-17T00:03:54.080Z,44.63
2024-02-17T00:06:57.046Z,46.95
2024-02-17T00:10:00.004Z,47.10
2024-02-17T00:13:02.717Z,44.35
2024-02-17T00:16:08.413Z,44.83
2024-02-17T00:19:10.986Z,47.30
2024-02-17T00:22:17.714Z,48.08
2024-02-17T00:25:20.364Z,48.20
2024-02-17T00:28:27.618Z,46.13
2024-02-17T00:31:30.269Z,49.90
2024-02-17T00:34:33.225Z,46.00
2024-02-17T00:37:35.955Z,47.55
2024-02-17T00:40:40.710Z,46.15
2024-02-17T00:43:43.406Z,50.03
2024-02-17T00:46:49.239Z,45.65
2024-02-17T00:49:52.045Z,49.25
2024-02-17T00:52:56.853Z,47.45
2024-02-17T00:55:59.389Z,46.17
2024-02-17T00:59:02.677Z,48.33
2024-02-17T01:02:05.972Z,47.97
2024-02-17T01:05:09.115Z,47.38
2024-02-17T01:08:12.244Z,48.53
2024-02-17T01:11:16.110Z,46.22
2024-02-17T01:14:19.105Z,49.05
2024-02-17T01:17:22.069Z,48.63
2024-02-17T01:20:24.622Z,47.58
2024-02-17T01:23:27.472Z,50.00
2024-02-17T01:26:30.111Z,48.13
2024-02-17T01:29:32.953Z,49.63
2024-02-17T01:32:35.522Z,50.85
2024-02-17T01:35:38.275Z,48.60
2024-02-17T01:38:41.182Z,48.78
2024-02-17T01:41:44.359Z,50.53
2024-02-17T01:44:46.890Z,46.40
2024-02-17T01:47:50.709Z,51.10
2024-02-17T01:50:53.399Z,49.00
2024-02-17T01:53:56.851Z,50.30
2024-02-17T01:57:01.107Z,50.00
2024-02-17T02:00:06.983Z,50.50
2024-02-17T02:03:14.637Z,52.28
2024-02-17T02:06:23.857Z,51.30
2024-02-17T02:09:26.547Z,53.83
2024-02-17T02:12:29.608Z,52.95
2024-02-17T02:15:40.770Z,51.50
2024-02-17T02:18:48.492Z,53.55
2024-02-17T02:21:51.262Z,52.13
2024-02-17T02:24:57.604Z,54.22
2024-02-17T02:28:00.197Z,52.38
2024-02-17T02:31:03.309Z,50.50
2024-02-17T02:34:06.178Z,49.33
2024-02-17T02:37:09.118Z,48.33
2024-02-17T02:40:12.149Z,49.75
2024-02-17T02:43:15.190Z,49.20
2024-02-17T02:46:17.747Z,45.28
2024-02-17T02:49:23.887Z,46.65
2024-02-17T02:52:27.014Z,44.55
2024-02-17T02:55:29.913Z,48.08
2024-02-17T02:58:33.670Z,49.83
2024-02-17T03:01:36.626Z,46.25
2024-02-17T03:04:39.280Z,44.72
2024-02-17T03:07:42.218Z,44.15
2024-02-17T03:10:44.952Z,47.28
2024-02-17T03:13:47.978Z,47.08
2024-02-17T03:16:50.633Z,46.40
2024-02-17T03:19:53.715Z,47.55
2024-02-17T03:22:56.855Z,46.25
2024-02-17T03:25:59.644Z,49.10
2024-02-17T03:29:02.253Z,48.67
2024-02-17T03:32:06.457Z,46.50
2024-02-17T03:35:09.358Z,49.40
2024-02-17T03:38:12.240Z,47.00
2024-02-17T03:41:16.510Z,44.95
2024-02-17T03:44:19.754Z,46.17
2024-02-17T03:47:22.346Z,48.47
2024-02-17T03:50:25.235Z,48.83
2024-02-17T03:53:28.376Z,48.30
2024-02-17T03:56:31.341Z,50.50
2024-02-17T03:59:33.950Z,47.38
2024-02-17T04:02:36.802Z,51.88
2024-02-17T04:05:39.746Z,50.67
2024-02-17T04:08:42.353Z,47.75
2024-02-17T04:11:45.233Z,48.80
2024-02-17T04:14:47.835Z,47.05
2024-02-17T04:17:50.815Z,45.28
2024-02-17T04:20:53.901Z,46.72
2024-02-17T04:23:57.388Z,47.60
2024-02-17T04:26:59.960Z,41.58
2024-02-17T04:30:02.879Z,45.70
2024-02-17T04:33:05.604Z,43.15
2024-02-17T04:36:09.294Z,47.85
2024-02-17T04:39:14.713Z,48.08
2024-02-17T04:42:17.844Z,45.55
2024-02-17T04:45:20.620Z,48.28
2024-02-17T04:48:23.752Z,46.37
2024-02-17T04:51:26.382Z,45.42
2024-02-17T04:54:29.276Z,47.83
2024-02-17T04:57:31.821Z,49.60
2024-02-17T05:00:35.827Z,48.72
2024-02-17T05:03:38.637Z,49.22
2024-02-17T05:06:41.569Z,51.53
2024-02-17T05:09:44.090Z,50.53
2024-02-17T05:12:47.179Z,45.88
2024-02-17T05:15:50.581Z,43.50
2024-02-17T05:18:55.636Z,48.95
2024-02-17T05:21:59.315Z,47.78
2024-02-17T05:25:02.098Z,48.28
2024-02-17T05:28:04.851Z,46.20
2024-02-17T05:31:25.901Z,48.58
2024-02-17T05:34:28.579Z,49.72
2024-02-17T05:37:31.488Z,46.45
2024-02-17T05:40:34.247Z,47.42
2024-02-17T05:43:37.158Z,46.90
2024-02-17T05:46:39.762Z,49.20
2024-02-17T05:49:43.295Z,46.42
2024-02-17T05:52:50.058Z,42.95
2024-02-17T05:55:53.269Z,46.58
2024-02-17T05:58:57.868Z,49.40
2024-02-17T06:02:01.020Z,49.00
2024-02-17T06:05:04.453Z,53.03
2024-02-17T06:08:07.590Z,42.72
2024-02-17T06:11:10.462Z,49.20
2024-02-17T06:14:13.761Z,48.45
2024-02-17T06:17:24.028Z,49.63
2024-02-17T06:20:45.493Z,49.47
2024-02-17T06:23:54.191Z,48.80
2024-02-17T06:26:56.790Z,49.15
2024-02-17T06:29:59.738Z,46.85
2024-02-17T06:33:02.495Z,49.05
2024-02-17T06:36:07.087Z,50.40
2024-02-17T06:39:09.955Z,47.80
2024-02-17T06:42:13.318Z,46.15
2024-02-17T06:45:18.270Z,46.58
2024-02-17T06:48:21.148Z,46.45
2024-02-17T06:51:24.112Z,51.40
2024-02-17T06:54:27.100Z,42.47
2024-02-17T06:57:29.799Z,48.70
2024-02-17T07:00:32.876Z,44.83
2024-02-17T07:03:35.624Z,43.47
2024-02-17T07:06:38.646Z,45.67
2024-02-17T07:09:41.414Z,46.00
2024-02-17T07:12:44.415Z,45.53
2024-02-17T07:15:47.103Z,42.85
2024-02-17T07:18:50.919Z,47.62
2024-02-17T07:21:54.086Z,47.72
2024-02-17T07:24:56.964Z,46.03
2024-02-17T07:27:59.572Z,42.75
2024-02-17T07:31:02.555Z,44.90
2024-02-17T07:34:05.098Z,43.60
2024-02-17T07:37:08.012Z,42.08
2024-02-17T07:40:11.314Z,41.97
2024-02-17T07:43:14.246Z,41.95
2024-02-17T07:46:18.579Z,48.20
2024-02-17T07:49:22.748Z,43.40
2024-02-17T07:52:25.358Z,43.17
2024-02-17T07:55:28.142Z,41.45
2024-02-17T07:58:31.014Z,41.42
2024-02-17T08:01:34.036Z,38.15
2024-02-17T08:04:37.803Z,38.97
2024-02-17T08:07:41.607Z,39.88
2024-02-17T08:10:44.594Z,41.60
2024-02-17T08:13:47.322Z,35.50
2024-02-17T08:16:50.284Z,34.97
2024-02-17T08:19:53.965Z,30.98
2024-02-17T08:22:57.018Z,28.73
2024-02-17T08:26:00.742Z,29.85
2024-02-17T08:29:03.640Z,33.83
2024-02-17T08:32:06.816Z,26.77
2024-02-17T08:35:11.938Z,31.95
2024-02-17T08:38:14.720Z,30.98
2024-02-17T08:41:20.694Z,26.50
2024-02-17T08:44:23.372Z,29.05
2024-02-17T08:47:26.275Z,24.92
2024-02-17T08:50:28.783Z,31.33
2024-02-17T08:53:32.491Z,26.52
2024-02-17T08:56:35.052Z,27.55
2024-02-17T08:59:38.290Z,29.23
2024-02-17T09:02:42.555Z,29.37
2024-02-17T09:05:46.193Z,33.95
2024-02-17T09:08:48.879Z,32.15
2024-02-17T09:11:51.826Z,31.92
2024-02-17T09:14:54.809Z,34.42
2024-02-17T09:17:57.770Z,32.25
2024-02-17T09:21:00.287Z,32.65
2024-02-17T09:24:03.292Z,32.80
2024-02-17T09:27:06.117Z,35.78
2024-02-17T09:30:09.283Z,35.83
2024-02-17T09:33:13.159Z,37.40
2024-02-17T09:36:16.184Z,32.88
2024-02-17T09:39:18.896Z,34.08
2024-02-17T09:42:21.936Z,39.03
2024-02-17T09:45:24.898Z,34.05
2024-02-17T09:48:29.287Z,38.70
2024-02-17T09:51:33.185Z,36.28
2024-02-17T09:54:38.471Z,40.70
2024-02-17T09:57:47.422Z,35.10
2024-02-17T10:00:59.068Z,39.72
2024-02-17T10:04:05.218Z,34.85
2024-02-17T10:07:07.829Z,33.25
2024-02-17T10:10:11.053Z,31.67
2024-02-17T10:13:20.155Z,31.67
2024-02-17T10:16:22.964Z,33.20
2024-02-17T10:19:26.763Z,30.85
2024-02-17T10:22:29.740Z,28.20
2024-02-17T10:28:38.762Z,21.80
2024-02-17T10:31:43.736Z,21.75
2024-02-17T10:34:47.084Z,22.80
2024-02-17T10:37:53.469Z,19.58
2024-02-17T10:40:56.371Z,24.65
2024-02-17T10:43:58.952Z,19.92
2024-02-17T10:47:03.452Z,20.08
2024-02-17T10:50:17.794Z,21.50
2024-02-17T10:53:22.191Z,20.77
2024-02-17T10:56:25.348Z,23.25
2024-02-17T10:59:31.143Z,26.08
2024-02-17T11:02:34.727Z,21.23
2024-02-17T11:05:45.658Z,21.08
2024-02-17T11:08:48.406Z,25.23
2024-02-17T11:11:51.554Z,22.52
2024-02-17T11:15:15.073Z,23.05
2024-02-17T11:18:26.422Z,22.62
2024-02-17T11:21:37.706Z,26.92
2024-02-17T11:24:40.613Z,23.85
2024-02-17T11:27:43.769Z,21.67
2024-02-17T11:30:59.429Z,21.50
2024-02-17T11:34:04.241Z,23.48
2024-02-17T11:37:08.608Z,22.52
2024-02-17T11:40:11.946Z,22.25
2024-02-17T11:43:16.209Z,21.45
2024-02-17T11:46:20.610Z,23.33
2024-02-17T11:49:30.031Z,19.17
2024-02-17T11:52:43.878Z,27.00
2024-02-17T11:55:49.993Z,19.12
2024-02-17T11:58:55.560Z,22.20
2024-02-17T12:02:01.661Z,21.87
2024-02-17T12:05:04.915Z,21.35
2024-02-17T12:08:07.848Z,24.60
2024-02-17T12:11:10.842Z,21.48
2024-02-17T12:14:13.717Z,22.67
2024-02-17T12:17:16.783Z,23.27
2024-02-17T12:20:20.161Z,20.45
2024-02-17T12:23:22.998Z,25.62
2024-02-17T12:26:41.500Z,23.00
2024-02-17T12:29:51.660Z,21.40
2024-02-17T12:33:19.966Z,24.17
2024-02-17T12:36:23.996Z,19.70
2024-02-17T12:39:27.572Z,21.45
2024-02-17T12:42:30.632Z,21.77
2024-02-17T12:45:33.882Z,21.87
2024-02-17T12:48:38.499Z,19.87
2024-02-17T12:51:41.275Z,20.83
2024-02-17T12:54:45.015Z,24.80
2024-02-17T12:57:47.640Z,21.27
2024-02-17T13:00:50.646Z,22.92
2024-02-17T13:03:53.387Z,21.08
2024-02-17T13:06:56.609Z,21.55
2024-02-17T13:09:59.471Z,24.02
2024-02-17T13:13:05.439Z,20.95
2024-02-17T13:16:08.520Z,23.05
2024-02-17T13:19:12.164Z,22.20
2024-02-17T13:22:15.332Z,20.95
2024-02-17T13:25:18.676Z,20.33
2024-02-17T13:28:21.499Z,20.05
2024-02-17T13:31:25.659Z,21.20
2024-02-17T13:34:30.072Z,26.33
2024-02-17T13:37:32.977Z,22.58
2024-02-17T13:40:35.595Z,27.75
2024-02-17T13:43:38.542Z,21.50
2024-02-17T13:46:41.110Z,21.92
2024-02-17T13:49:44.056Z,23.38
2024-02-17T13:52:47.939Z,24.23
2024-02-17T13:55:50.886Z,24.40
2024-02-17T13:58:53.689Z,22.58
2024-02-17T14:01:56.700Z,22.92
2024-02-17T14:05:01.926Z,24.20
2024-02-17T14:08:04.855Z,20.65
2024-02-17T14:11:08.484Z,22.33
2024-02-17T14:14:14.551Z,21.60
2024-02-17T14:17:18.617Z,21.83
2024-02-17T14:20:21.530Z,22.05
2024-02-17T14:23:24.604Z,20.67
2024-02-17T14:26:27.062Z,25.42
2024-02-17T14:29:46.393Z,23.73
2024-02-17T14:32:49.313Z,27.15
2024-02-17T14:35:52.178Z,23.77
2024-02-17T14:38:57.251Z,23.67
2024-02-17T14:42:00.124Z,24.60
2024-02-17T14:45:04.330Z,24.10
2024-02-17T14:48:07.579Z,23.35
2024-02-17T14:51:10.291Z,24.48
2024-02-17T14:54:13.633Z,25.48
2024-02-17T14:57:16.234Z,24.75
2024-02-17T15:00:19.803Z,22.60
2024-02-17T15:03:23.088Z,25.23
2024-02-17T15:06:26.113Z,25.27
2024-02-17T15:09:28.872Z,23.10
2024-02-17T15:12:31.885Z,25.83
2024-02-17T15:15:34.650Z,26.33
2024-02-17T15:18:37.684Z,27.62
2024-02-17T15:21:40.480Z,28.83
2024-02-17T15:24:43.402Z,29.87
2024-02-17T15:27:45.964Z,24.37
2024-02-17T15:30:48.929Z,28.45
2024-02-17T15:33:51.593Z,24.52
2024-02-17T15:36:54.612Z,27.00
2024-02-17T15:39:57.334Z,27.48
2024-02-17T15:43:00.814Z,27.50
2024-02-17T15:46:04.320Z,26.12
2024-02-17T15:49:07.363Z,26.30
2024-02-17T15:52:09.998Z,25.92
2024-02-17T15:55:12.954Z,22.67
2024-02-17T15:58:15.650Z,24.87
2024-02-17T16:01:20.281Z,25.50
2024-02-17T16:04:23.389Z,22.77
2024-02-17T16:07:28.447Z,23.98
2024-02-17T16:10:31.402Z,22.00
2024-02-17T16:13:34.660Z,23.35
2024-02-17T16:16:38.382Z,27.10
2024-02-17T16:19:41.824Z,25.48
2024-02-17T16:22:46.324Z,27.33
2024-02-17T16:25:52.851Z,23.73
2024-02-17T16:28:57.260Z,25.40
2024-02-17T16:32:02.140Z,25.90
2024-02-17T16:35:06.162Z,26.73
2024-02-17T16:38:11.087Z,25.92
2024-02-17T16:41:14.041Z,28.38
2024-02-17T16:44:16.696Z,24.48
2024-02-17T16:47:20.220Z,28.45
2024-02-17T16:50:22.771Z,25.70
2024-02-17T16:53:25.808Z,27.45
2024-02-17T16:56:28.412Z,28.67
2024-02-17T16:59:31.256Z,25.98
2024-02-17T17:02:33.870Z,30.02
2024-02-17T17:05:37.459Z,26.33
2024-02-17T17:08:40.320Z,29.90
2024-02-17T17:11:43.922Z,28.17
2024-02-17T17:14:46.415Z,30.85
2024-02-17T17:17:49.338Z,27.87
2024-02-17T17:20:51.985Z,30.70
2024-02-17T17:23:55.352Z,28.42
2024-02-17T17:26:57.903Z,28.20
2024-02-17T17:30:00.968Z,28.58
2024-02-17T17:33:03.861Z,31.00
2024-02-17T17:36:06.970Z,29.92
2024-02-17T17:39:09.799Z,28.25
2024-02-17T17:42:13.210Z,29.42
2024-02-17T17:45:15.865Z,26.98
2024-02-17T17:48:18.952Z,26.98
2024-02-17T17:51:21.558Z,28.23
2024-02-17T17:54:24.405Z,28.58
2024-02-17T17:57:26.971Z,27.83
2024-02-17T18:00:29.984Z,30.05
2024-02-17T18:03:33.086Z,27.52
2024-02-17T18:06:35.963Z,29.02
2024-02-17T18:09:38.922Z,29.23
2024-02-17T18:12:41.744Z,30.25
2024-02-17T18:15:44.729Z,28.58
2024-02-17T18:18:47.365Z,29.60
2024-02-17T18:21:50.694Z,26.20
2024-02-17T18:24:53.724Z,28.60
2024-02-17T18:27:56.646Z,28.12
2024-02-17T18:30:59.371Z,27.80
2024-02-17T18:34:02.419Z,30.75
2024-02-17T18:37:05.928Z,28.90
2024-02-17T18:40:09.723Z,28.62
2024-02-17T18:43:12.328Z,27.62
2024-02-17T18:46:17.048Z,28.55
2024-02-17T18:49:20.031Z,29.58
2024-02-17T18:52:24.080Z,31.20
2024-02-17T18:55:26.709Z,29.37
2024-02-17T18:58:29.567Z,28.12
2024-02-17T19:01:32.329Z,27.42
2024-02-17T19:04:35.486Z,30.12
2024-02-17T19:07:40.362Z,28.85
2024-02-17T19:10:43.404Z,30.70
2024-02-17T19:13:46.971Z,29.33
2024-02-17T19:16:50.258Z,28.12
2024-02-17T19:19:53.084Z,30.27
2024-02-17T19:22:56.152Z,28.35
2024-02-17T19:25:58.741Z,26.92
2024-02-17T19:29:01.600Z,26.98
2024-02-17T19:32:04.387Z,28.00
2024-02-17T19:35:08.234Z,31.23
2024-02-17T19:38:11.427Z,30.17
2024-02-17T19:41:16.215Z,31.10
2024-02-17T19:44:18.766Z,29.48
2024-02-17T19:47:22.083Z,29.65
2024-02-17T19:50:24.745Z,29.85
2024-02-17T19:53:27.665Z,29.95
2024-02-17T19:56:30.248Z,30.92
2024-02-17T19:59:33.143Z,32.22
2024-02-17T20:02:36.162Z,30.95
2024-02-17T20:05:39.622Z,29.70
2024-02-17T20:08:42.299Z,29.15
2024-02-17T20:11:45.159Z,32.85
2024-02-17T20:14:49.984Z,31.65
2024-02-17T20:17:52.869Z,33.10
2024-02-17T20:20:56.585Z,31.25
2024-02-17T20:23:59.283Z,31.83
2024-02-17T20:27:01.927Z,32.45
2024-02-17T20:30:05.737Z,29.95
2024-02-17T20:33:11.975Z,31.33
2024-02-17T20:36:15.086Z,34.70
2024-02-17T20:39:17.695Z,40.85
2024-02-17T20:42:20.663Z,38.25
2024-02-17T20:45:23.374Z,33.35
2024-02-17T20:48:27.112Z,33.53
2024-02-17T20:51:30.082Z,33.10
2024-02-17T20:54:33.014Z,32.13
2024-02-17T20:57:35.813Z,32.35
2024-02-17T21:00:41.221Z,32.08
2024-02-17T21:03:44.363Z,31.27
2024-02-17T21:06:48.019Z,32.88
2024-02-17T21:09:54.700Z,33.60
2024-02-17T21:12:57.789Z,31.40
2024-02-17T21:16:01.056Z,30.77
2024-02-17T21:19:04.178Z,30.62
2024-02-17T21:22:07.088Z,33.50
2024-02-17T21:25:10.251Z,31.95
2024-02-17T21:28:12.988Z,30.58
2024-02-17T21:31:15.974Z,31.77
2024-02-17T21:34:18.818Z,32.15
2024-02-17T21:37:21.725Z,32.85
2024-02-17T21:40:24.356Z,31.33
2024-02-17T21:43:27.326Z,32.53
2024-02-17T21:46:29.911Z,30.37
2024-02-17T21:49:32.988Z,32.55
2024-02-17T21:52:36.378Z,28.77
2024-02-17T21:55:39.332Z,31.62
2024-02-17T21:58:42.115Z,32.05
2024-02-17T22:01:51.880Z,26.67
2024-02-17T22:05:01.441Z,28.25
2024-02-17T22:08:04.442Z,27.48
2024-02-17T22:11:07.299Z,25.37
2024-02-17T22:14:09.958Z,24.05
2024-02-17T22:17:12.772Z,23.92
2024-02-17T22:20:15.574Z,24.05
2024-02-17T22:23:18.704Z,21.33
2024-02-17T22:26:21.423Z,23.58
2024-02-17T22:29:24.151Z,21.62
2024-02-17T22:32:26.626Z,21.35
2024-02-17T22:35:29.996Z,22.35
2024-02-17T22:38:33.720Z,24.52
2024-02-17T22:41:37.191Z,20.77
2024-02-17T22:44:39.711Z,22.67
2024-02-17T22:47:42.548Z,20.90
2024-02-17T22:50:45.199Z,22.20
2024-02-17T22:53:47.953Z,21.87
2024-02-17T22:56:50.519Z,25.25
2024-02-17T22:59:53.337Z,28.48
2024-02-17T23:02:55.916Z,21.05
2024-02-17T23:05:58.911Z,20.50
2024-02-17T23:09:01.527Z,21.45
2024-02-17T23:12:04.744Z,22.60
2024-02-17T23:15:08.458Z,25.02
2024-02-17T23:18:11.466Z,23.23
2024-02-17T23:21:14.248Z,23.05
2024-02-17T23:24:17.145Z,23.15
2024-02-17T23:27:19.786Z,25.30
2024-02-17T23:30:22.756Z,21.95
2024-02-17T23:33:25.376Z,23.75
2024-02-17T23:36:28.724Z,24.52
2024-02-17T23:39:31.470Z,24.90
2024-02-17T23:42:34.479Z,23.70
2024-02-17T23:45:37.292Z,26.92
2024-02-17T23:48:40.891Z,27.25
2024-02-17T23:51:48.031Z,27.80
2024-02-17T23:54:50.986Z,30.62
2024-02-17T23:57:53.566Z,32.10
